Time;durP1;ratioP1;P1;durP2;ratioP2;P2;SDS_P1;SDS_P2;PMS_P1;PMS_P2;Temp;Humidity;BMP_temperature;BMP_pressure;BME280_temperature;BME280_humidity;BME280_pressure;Samples;Min_cycle;Max_cycle;Signal;HPM_P1;HPM_P2
2023/03/20 00:00:56;;;;;;;9.88;5.13;;;;;;;;;;4960693;28;20043;-77
2023/03/20 00:03:22;;;;;;;9.52;5.10;;;;;;;;;;4955609;28;20094;-77
2023/03/20 00:05:50;;;;;;;10.75;5.85;;;;;;;;;;4955785;28;20047;-77
2023/03/20 00:08:16;;;;;;;8.10;5.20;;;;;;;;;;4956006;28;20495;-77
2023/03/20 00:10:43;;;;;;;11.68;5.43;;;;;;;;;;4955632;28;20086;-77
2023/03/20 00:13:14;;;;;;;9.15;5.57;;;;;;;;;;4955395;28;21440;-77
2023/03/20 00:15:41;;;;;;;8.05;5.30;;;;;;;;;;4955783;28;20083;-77
2023/03/20 00:18:34;;;;;;;9.15;5.07;;;;;;;;;;4955492;28;20081;-77
2023/03/20 00:21:01;;;;;;;8.57;4.85;;;;;;;;;;4956316;28;20070;-77
2023/03/20 00:23:27;;;;;;;9.57;5.00;;;;;;;;;;4955672;28;20051;-77
2023/03/20 00:25:53;;;;;;;7.45;4.65;;;;;;;;;;4955368;28;20043;-77
2023/03/20 00:28:39;;;;;;;8.15;4.68;;;;;;;;;;4955587;28;20049;-77
2023/03/20 00:31:13;;;;;;;7.65;4.78;;;;;;;;;;4955380;28;20086;-77
2023/03/20 00:33:39;;;;;;;9.18;4.63;;;;;;;;;;4955242;28;20039;-77
2023/03/20 00:36:05;;;;;;;9.73;5.15;;;;;;;;;;4955116;28;20046;-77
2023/03/20 00:38:31;;;;;;;7.15;4.60;;;;;;;;;;4955832;28;20043;-77
2023/03/20 00:40:57;;;;;;;7.32;4.65;;;;;;;;;;4955930;28;20047;-76
2023/03/20 00:43:24;;;;;;;12.10;5.07;;;;;;;;;;4954954;28;20057;-77
2023/03/20 00:45:50;;;;;;;8.63;4.63;;;;;;;;;;4955806;28;20066;-77
2023/03/20 00:48:16;;;;;;;10.88;4.90;;;;;;;;;;4959344;28;20043;-78
2023/03/20 00:50:42;;;;;;;8.35;4.65;;;;;;;;;;4959521;28;20071;-77
2023/03/20 00:53:10;;;;;;;9.27;4.70;;;;;;;;;;4959380;28;20062;-77
2023/03/20 00:55:36;;;;;;;10.90;4.65;;;;;;;;;;4959279;28;20102;-77
2023/03/20 00:58:03;;;;;;;11.82;5.20;;;;;;;;;;4959193;28;20045;-77
2023/03/20 01:00:29;;;;;;;14.05;4.82;;;;;;;;;;4958543;28;20079;-77
2023/03/20 01:02:56;;;;;;;9.52;5.05;;;;;;;;;;4958834;28;20071;-77
2023/03/20 01:05:22;;;;;;;9.43;4.53;;;;;;;;;;4959321;28;20057;-77
2023/03/20 01:07:49;;;;;;;10.45;5.00;;;;;;;;;;4959048;28;20047;-77
2023/03/20 01:10:16;;;;;;;13.98;5.30;;;;;;;;;;4958893;28;20054;-77
2023/03/20 01:12:43;;;;;;;10.13;5.15;;;;;;;;;;4958533;28;20055;-77
2023/03/20 01:15:15;;;;;;;11.77;4.90;;;;;;;;;;4958633;28;20039;-77
2023/03/20 01:17:41;;;;;;;9.68;5.18;;;;;;;;;;4959106;28;20047;-77
2023/03/20 01:20:15;;;;;;;12.63;4.40;;;;;;;;;;4958126;28;20102;-77
2023/03/20 01:22:41;;;;;;;10.77;5.22;;;;;;;;;;4958538;28;20407;-77
2023/03/20 01:25:07;;;;;;;10.68;5.18;;;;;;;;;;4958933;28;20044;-77
2023/03/20 01:27:33;;;;;;;11.02;5.30;;;;;;;;;;4958197;28;20047;-77
2023/03/20 01:29:59;;;;;;;11.10;4.93;;;;;;;;;;4958780;28;20043;-77
2023/03/20 01:32:25;;;;;;;9.20;5.03;;;;;;;;;;4958624;28;20105;-77
2023/03/20 01:34:53;;;;;;;9.80;5.30;;;;;;;;;;4958774;28;20047;-77
2023/03/20 01:37:26;;;;;;;14.27;5.70;;;;;;;;;;4958437;28;20506;-77
2023/03/20 01:39:53;;;;;;;10.07;5.50;;;;;;;;;;4958063;28;20426;-77
2023/03/20 01:42:19;;;;;;;11.95;5.55;;;;;;;;;;4958324;28;20126;-77
2023/03/20 01:44:45;;;;;;;12.35;5.05;;;;;;;;;;4958483;28;20043;-77
2023/03/20 01:47:15;;;;;;;10.20;5.25;;;;;;;;;;4958906;28;20047;-77
2023/03/20 01:50:00;;;;;;;12.75;5.35;;;;;;;;;;4958094;28;20042;-79
2023/03/20 01:52:26;;;;;;;13.45;5.20;;;;;;;;;;4958161;28;20118;-77
2023/03/20 01:54:52;;;;;;;12.40;5.75;;;;;;;;;;4957964;28;20043;-77
2023/03/20 01:57:20;;;;;;;14.48;5.97;;;;;;;;;;4957744;28;20472;-77
2023/03/20 01:59:48;;;;;;;13.40;6.13;;;;;;;;;;4957755;28;20079;-77
2023/03/20 02:02:16;;;;;;;13.77;5.35;;;;;;;;;;4958254;28;20054;-77
2023/03/20 02:04:44;;;;;;;13.60;5.45;;;;;;;;;;4957804;28;20106;-77
2023/03/20 02:07:12;;;;;;;13.40;5.57;;;;;;;;;;4957813;28;20042;-78
2023/03/20 02:09:38;;;;;;;12.10;5.30;;;;;;;;;;4957836;28;20078;-78
2023/03/20 02:12:04;;;;;;;11.40;5.43;;;;;;;;;;4958052;28;20453;-78
2023/03/20 02:14:31;;;;;;;9.38;5.25;;;;;;;;;;4957717;28;20419;-78
2023/03/20 02:16:57;;;;;;;14.02;5.30;;;;;;;;;;4958144;28;20043;-78
2023/03/20 02:19:44;;;;;;;11.27;5.50;;;;;;;;;;4957916;28;20126;-78
2023/03/20 02:22:12;;;;;;;13.70;5.75;;;;;;;;;;4956595;28;20079;-78
2023/03/20 02:25:02;;;;;;;15.98;6.00;;;;;;;;;;4957458;28;20519;-78
2023/03/20 02:27:46;;;;;;;12.40;5.63;;;;;;;;;;4972123;28;20044;-78
2023/03/20 02:30:31;;;;;;;14.38;6.20;;;;;;;;;;4957521;28;20522;-78
2023/03/20 02:33:04;;;;;;;15.10;5.72;;;;;;;;;;4938425;29;20083;-78
2023/03/20 02:35:30;;;;;;;14.48;6.28;;;;;;;;;;4938070;29;20051;-77
2023/03/20 02:37:59;;;;;;;16.45;6.13;;;;;;;;;;4952331;29;20054;-77
2023/03/20 02:40:44;;;;;;;16.08;5.72;;;;;;;;;;4957426;28;20051;-77
2023/03/20 02:43:17;;;;;;;13.38;6.28;;;;;;;;;;4956947;28;20047;-77
2023/03/20 02:46:03;;;;;;;13.43;6.43;;;;;;;;;;4957296;28;20379;-77
2023/03/20 02:48:38;;;;;;;14.73;6.22;;;;;;;;;;4956939;28;20043;-78
2023/03/20 02:51:11;;;;;;;12.65;6.50;;;;;;;;;;4957277;28;20059;-77
2023/03/20 02:53:40;;;;;;;19.13;7.00;;;;;;;;;;4956933;28;20113;-77
2023/03/20 02:56:16;;;;;;;15.00;6.97;;;;;;;;;;4988015;28;20047;-77
2023/03/20 02:59:01;;;;;;;15.00;6.30;;;;;;;;;;4958186;28;20047;-77
2023/03/20 03:01:27;;;;;;;13.93;6.75;;;;;;;;;;4957128;28;20079;-77
2023/03/20 03:03:56;;;;;;;15.55;6.80;;;;;;;;;;4956657;28;20081;-78
2023/03/20 03:06:25;;;;;;;13.93;7.05;;;;;;;;;;4957535;28;20050;-77
2023/03/20 03:08:53;;;;;;;17.80;7.22;;;;;;;;;;4959391;28;20102;-77
2023/03/20 03:11:20;;;;;;;15.18;6.75;;;;;;;;;;4960308;28;20126;-78
2023/03/20 03:13:51;;;;;;;14.25;7.15;;;;;;;;;;4959343;28;20075;-78
2023/03/20 03:16:26;;;;;;;12.60;6.72;;;;;;;;;;4957519;28;20043;-78
2023/03/20 03:18:58;;;;;;;13.43;7.13;;;;;;;;;;4987709;28;20414;-78
2023/03/20 03:21:25;;;;;;;16.92;7.30;;;;;;;;;;4956501;28;20487;-77
2023/03/20 03:23:52;;;;;;;15.82;7.30;;;;;;;;;;4956487;28;20402;-77
2023/03/20 03:26:22;;;;;;;13.73;7.00;;;;;;;;;;4955853;28;20552;-79
2023/03/20 03:28:50;;;;;;;15.23;6.60;;;;;;;;;;4987590;28;20055;-77
2023/03/20 03:31:17;;;;;;;14.07;6.50;;;;;;;;;;4956299;28;20043;-77
2023/03/20 03:33:45;;;;;;;17.08;7.25;;;;;;;;;;4936970;29;20179;-77
2023/03/20 03:36:22;;;;;;;11.77;6.28;;;;;;;;;;4937324;29;20392;-77
2023/03/20 03:38:51;;;;;;;11.07;6.53;;;;;;;;;;4937261;29;20059;-77
2023/03/20 03:41:19;;;;;;;15.15;7.15;;;;;;;;;;4945680;29;20052;-77
2023/03/20 03:43:52;;;;;;;13.02;6.93;;;;;;;;;;4956487;28;20129;-77
2023/03/20 03:46:18;;;;;;;14.38;6.72;;;;;;;;;;4943887;28;20054;-77
2023/03/20 03:48:47;;;;;;;12.23;7.28;;;;;;;;;;4937133;29;20043;-77
2023/03/20 03:51:16;;;;;;;12.43;7.30;;;;;;;;;;4936912;29;20039;-77
2023/03/20 03:53:48;;;;;;;10.85;6.38;;;;;;;;;;4936925;29;20051;-77
2023/03/20 03:56:15;;;;;;;12.43;6.25;;;;;;;;;;4947808;29;20055;-77
2023/03/20 03:58:47;;;;;;;13.15;6.57;;;;;;;;;;4956259;28;20501;-77
2023/03/20 04:01:14;;;;;;;13.80;6.53;;;;;;;;;;4955547;28;20057;-77
2023/03/20 04:03:46;;;;;;;13.60;6.60;;;;;;;;;;4955958;28;20398;-77
2023/03/20 04:06:12;;;;;;;11.15;6.22;;;;;;;;;;4955780;28;20043;-77
2023/03/20 04:08:42;;;;;;;12.57;6.95;;;;;;;;;;4954417;29;20469;-77
2023/03/20 04:11:18;;;;;;;10.48;6.15;;;;;;;;;;4955534;28;20039;-77
2023/03/20 04:13:45;;;;;;;13.70;6.95;;;;;;;;;;4945489;28;20055;-77
2023/03/20 04:16:16;;;;;;;13.45;7.00;;;;;;;;;;4936423;29;20173;-77
2023/03/20 04:18:42;;;;;;;14.90;7.53;;;;;;;;;;4936681;29;20095;-77
2023/03/20 04:21:08;;;;;;;14.75;7.32;;;;;;;;;;4935562;29;20113;-77
2023/03/20 04:23:35;;;;;;;13.90;7.15;;;;;;;;;;4946310;29;20058;-77
2023/03/20 04:26:01;;;;;;;16.90;7.95;;;;;;;;;;4955124;28;20058;-77
2023/03/20 04:28:27;;;;;;;15.02;7.82;;;;;;;;;;4955705;28;20046;-77
2023/03/20 04:30:54;;;;;;;12.23;6.60;;;;;;;;;;4955569;28;20058;-77
2023/03/20 04:33:20;;;;;;;12.20;7.55;;;;;;;;;;4955735;28;20544;-77
2023/03/20 04:35:46;;;;;;;16.55;8.57;;;;;;;;;;4954747;28;20051;-77
2023/03/20 04:38:12;;;;;;;16.08;7.70;;;;;;;;;;4955892;28;20050;-77
2023/03/20 04:40:38;;;;;;;14.77;8.40;;;;;;;;;;4955656;28;20478;-77
2023/03/20 04:43:04;;;;;;;20.00;9.00;;;;;;;;;;4955296;28;20047;-77
2023/03/20 04:45:30;;;;;;;14.20;8.30;;;;;;;;;;4955455;28;20128;-77
2023/03/20 04:47:57;;;;;;;17.38;9.27;;;;;;;;;;4955366;28;20055;-77
2023/03/20 04:50:23;;;;;;;21.17;9.93;;;;;;;;;;4955547;28;20071;-77
2023/03/20 04:52:49;;;;;;;17.67;10.43;;;;;;;;;;4955603;28;20043;-77
2023/03/20 04:55:15;;;;;;;17.55;10.20;;;;;;;;;;4955117;28;20063;-77
2023/03/20 04:57:41;;;;;;;18.13;10.98;;;;;;;;;;4955668;28;20126;-77
2023/03/20 05:00:07;;;;;;;20.70;10.80;;;;;;;;;;4955462;28;20043;-77
2023/03/20 05:02:33;;;;;;;19.15;10.30;;;;;;;;;;4955024;28;20050;-77
2023/03/20 05:05:00;;;;;;;18.52;11.15;;;;;;;;;;4955392;28;20094;-77
2023/03/20 05:07:26;;;;;;;17.20;10.00;;;;;;;;;;4955455;28;20048;-77
2023/03/20 05:09:52;;;;;;;20.95;11.60;;;;;;;;;;4955479;28;20047;-77
2023/03/20 05:12:18;;;;;;;21.95;11.63;;;;;;;;;;4954920;28;20438;-77
2023/03/20 05:14:44;;;;;;;18.42;11.48;;;;;;;;;;4955177;28;20044;-77
2023/03/20 05:17:10;;;;;;;22.50;11.60;;;;;;;;;;4954838;28;20047;-77
2023/03/20 05:19:37;;;;;;;21.95;11.00;;;;;;;;;;4954687;28;20054;-77
2023/03/20 05:22:04;;;;;;;19.95;10.57;;;;;;;;;;4954522;28;20503;-77
2023/03/20 05:24:30;;;;;;;20.35;10.93;;;;;;;;;;4954791;28;20059;-77
2023/03/20 05:26:56;;;;;;;21.27;10.38;;;;;;;;;;4955255;28;20137;-77
2023/03/20 05:29:22;;;;;;;22.10;11.10;;;;;;;;;;4955039;28;20050;-77
2023/03/20 05:31:48;;;;;;;20.23;10.63;;;;;;;;;;4954740;28;20051;-77
2023/03/20 05:34:15;;;;;;;17.15;10.13;;;;;;;;;;4956958;28;20058;-77
2023/03/20 05:36:41;;;;;;;22.13;10.80;;;;;;;;;;4958575;28;20047;-77
2023/03/20 05:39:07;;;;;;;19.88;10.95;;;;;;;;;;4953291;28;20043;-77
2023/03/20 05:41:33;;;;;;;19.52;11.02;;;;;;;;;;4939211;29;20048;-77
2023/03/20 05:43:59;;;;;;;16.80;10.55;;;;;;;;;;4939356;29;20058;-77
2023/03/20 05:46:25;;;;;;;22.45;12.07;;;;;;;;;;4941356;29;20043;-77
2023/03/20 05:48:51;;;;;;;22.60;11.25;;;;;;;;;;4958393;28;20078;-77
2023/03/20 05:51:17;;;;;;;21.58;11.00;;;;;;;;;;4958511;28;20047;-77
2023/03/20 05:53:43;;;;;;;19.73;11.30;;;;;;;;;;4958214;28;20039;-77
2023/03/20 05:56:09;;;;;;;17.77;10.75;;;;;;;;;;4957845;28;20043;-77
2023/03/20 05:58:36;;;;;;;22.73;10.82;;;;;;;;;;4958485;28;20430;-77
2023/03/20 06:01:03;;;;;;;21.30;11.27;;;;;;;;;;4958326;28;20047;-77
2023/03/20 06:03:29;;;;;;;18.92;11.48;;;;;;;;;;4958121;28;20047;-77
2023/03/20 06:05:55;;;;;;;23.00;12.23;;;;;;;;;;4939158;29;20060;-77
2023/03/20 06:08:21;;;;;;;19.73;11.55;;;;;;;;;;4956689;29;20043;-77
2023/03/20 06:10:50;;;;;;;24.48;12.25;;;;;;;;;;4957613;28;20502;-77
2023/03/20 06:13:16;;;;;;;23.52;12.18;;;;;;;;;;4956558;29;20122;-77
2023/03/20 06:15:42;;;;;;;24.48;11.75;;;;;;;;;;4956993;29;20078;-77
2023/03/20 06:18:08;;;;;;;21.33;13.27;;;;;;;;;;4960483;28;20048;-77
2023/03/20 06:20:37;;;;;;;18.73;11.75;;;;;;;;;;4962832;28;20086;-77
2023/03/20 06:23:03;;;;;;;23.92;11.90;;;;;;;;;;4960034;28;20051;-77
2023/03/20 06:25:29;;;;;;;22.75;13.18;;;;;;;;;;4957385;28;20098;-77
2023/03/20 06:27:56;;;;;;;23.13;13.00;;;;;;;;;;4957719;28;20043;-77
2023/03/20 06:30:22;;;;;;;26.80;13.88;;;;;;;;;;4957477;28;20434;-77
2023/03/20 06:32:48;;;;;;;23.92;13.75;;;;;;;;;;4957772;28;20142;-77
2023/03/20 06:35:14;;;;;;;25.00;13.85;;;;;;;;;;4953452;28;20043;-77
2023/03/20 06:37:41;;;;;;;27.35;14.43;;;;;;;;;;4957165;29;20054;-77
2023/03/20 06:40:07;;;;;;;26.77;13.90;;;;;;;;;;4957543;29;20053;-77
2023/03/20 06:42:33;;;;;;;24.08;13.73;;;;;;;;;;4958177;28;20050;-77
2023/03/20 06:44:59;;;;;;;25.17;13.82;;;;;;;;;;4956893;28;20097;-77
2023/03/20 06:47:26;;;;;;;27.10;13.32;;;;;;;;;;4957620;28;20043;-77
2023/03/20 06:49:52;;;;;;;24.42;13.55;;;;;;;;;;4956764;28;20054;-77
2023/03/20 06:52:20;;;;;;;25.33;13.38;;;;;;;;;;4956990;28;20046;-77
2023/03/20 06:54:46;;;;;;;24.77;12.98;;;;;;;;;;4956829;28;20411;-77
2023/03/20 06:57:12;;;;;;;23.83;13.57;;;;;;;;;;4956924;28;20084;-77
2023/03/20 06:59:39;;;;;;;22.70;12.80;;;;;;;;;;4956318;28;20125;-77
2023/03/20 07:02:05;;;;;;;24.77;12.70;;;;;;;;;;4957458;28;20090;-77
2023/03/20 07:04:31;;;;;;;23.40;13.60;;;;;;;;;;4957927;28;20106;-78
2023/03/20 07:06:57;;;;;;;25.55;13.30;;;;;;;;;;4956659;28;20085;-77
2023/03/20 07:09:23;;;;;;;22.45;13.23;;;;;;;;;;4956665;28;20049;-77
2023/03/20 07:11:50;;;;;;;25.27;12.45;;;;;;;;;;4956229;29;20047;-77
2023/03/20 07:14:16;;;;;;;22.65;12.63;;;;;;;;;;4955120;28;20078;-76
2023/03/20 07:16:42;;;;;;;23.20;12.82;;;;;;;;;;4953276;29;20070;-77
2023/03/20 07:19:08;;;;;;;22.08;13.02;;;;;;;;;;4954708;28;20047;-76
2023/03/20 07:21:35;;;;;;;25.20;12.55;;;;;;;;;;4953340;28;20055;-77
2023/03/20 07:24:01;;;;;;;19.85;12.30;;;;;;;;;;4955109;28;20043;-76
2023/03/20 07:26:27;;;;;;;20.83;12.05;;;;;;;;;;4960142;28;20130;-76
2023/03/20 07:28:54;;;;;;;21.30;11.55;;;;;;;;;;4941259;29;20051;-76
2023/03/20 07:31:21;;;;;;;21.80;12.57;;;;;;;;;;4956557;28;20082;-77
2023/03/20 07:33:47;;;;;;;20.70;11.25;;;;;;;;;;4956214;28;20086;-77
2023/03/20 07:36:14;;;;;;;22.23;12.77;;;;;;;;;;4955317;28;20051;-76
2023/03/20 07:38:40;;;;;;;21.25;12.02;;;;;;;;;;4956293;28;20470;-77
2023/03/20 07:41:06;;;;;;;23.17;11.68;;;;;;;;;;4956238;28;20039;-76
2023/03/20 07:43:33;;;;;;;19.65;11.50;;;;;;;;;;4955645;28;20470;-76
2023/03/20 07:46:06;;;;;;;18.60;11.10;;;;;;;;;;4954708;28;20129;-76
2023/03/20 07:48:32;;;;;;;18.40;11.45;;;;;;;;;;4955989;28;20042;-76
2023/03/20 07:50:59;;;;;;;21.63;11.85;;;;;;;;;;4953830;28;20039;-76
2023/03/20 07:53:25;;;;;;;22.15;11.88;;;;;;;;;;4955698;28;20078;-76
2023/03/20 07:55:51;;;;;;;23.25;11.45;;;;;;;;;;4955073;28;20043;-76
2023/03/20 07:58:17;;;;;;;21.02;11.32;;;;;;;;;;4955441;28;20043;-76
2023/03/20 08:00:43;;;;;;;17.10;11.55;;;;;;;;;;4956269;29;20039;-76
2023/03/20 08:03:10;;;;;;;19.55;10.93;;;;;;;;;;4955594;29;20046;-76
2023/03/20 08:05:36;;;;;;;20.33;12.05;;;;;;;;;;4986995;28;20058;-76
2023/03/20 08:08:02;;;;;;;21.60;12.07;;;;;;;;;;4955983;28;20043;-76
2023/03/20 08:10:28;;;;;;;21.00;11.55;;;;;;;;;;4955546;28;20130;-77
2023/03/20 08:12:55;;;;;;;20.00;11.27;;;;;;;;;;4956321;28;20051;-76
2023/03/20 08:15:21;;;;;;;19.40;11.75;;;;;;;;;;4955503;28;20058;-76
2023/03/20 08:17:47;;;;;;;17.42;10.85;;;;;;;;;;4955477;28;20049;-77
2023/03/20 08:20:15;;;;;;;19.42;10.57;;;;;;;;;;4954468;28;20046;-76
2023/03/20 08:22:41;;;;;;;19.70;10.85;;;;;;;;;;4955768;28;20047;-77
2023/03/20 08:25:08;;;;;;;17.05;10.68;;;;;;;;;;4952480;29;20043;-77
2023/03/20 08:27:34;;;;;;;20.38;9.90;;;;;;;;;;4955135;28;20058;-77
2023/03/20 08:30:00;;;;;;;17.35;10.50;;;;;;;;;;4956164;28;20147;-81
2023/03/20 08:32:26;;;;;;;18.88;10.93;;;;;;;;;;4958341;28;20075;-80
2023/03/20 08:34:55;;;;;;;20.60;11.57;;;;;;;;;;4955825;28;20054;-79
2023/03/20 08:37:22;;;;;;;17.02;10.02;;;;;;;;;;4950390;29;20082;-77
2023/03/20 08:39:48;;;;;;;21.08;11.35;;;;;;;;;;4955390;28;20101;-77
2023/03/20 08:42:14;;;;;;;19.02;10.13;;;;;;;;;;4955354;28;20049;-77
2023/03/20 08:44:40;;;;;;;18.38;9.63;;;;;;;;;;4955617;28;20050;-76
2023/03/20 08:47:06;;;;;;;17.35;9.57;;;;;;;;;;4954764;28;20371;-76
2023/03/20 08:49:35;;;;;;;16.42;8.73;;;;;;;;;;4953830;28;20047;-77
2023/03/20 08:52:02;;;;;;;19.85;9.82;;;;;;;;;;4954616;28;20497;-77
2023/03/20 08:54:28;;;;;;;17.17;9.25;;;;;;;;;;4955238;28;20068;-77
2023/03/20 08:56:54;;;;;;;19.45;9.32;;;;;;;;;;4954473;28;20046;-76
2023/03/20 08:59:20;;;;;;;22.77;9.82;;;;;;;;;;4955111;28;20051;-76
2023/03/20 09:01:46;;;;;;;17.13;9.70;;;;;;;;;;4955623;28;20047;-77
2023/03/20 09:04:13;;;;;;;20.00;10.15;;;;;;;;;;4954664;28;20047;-76
2023/03/20 09:06:40;;;;;;;18.13;9.95;;;;;;;;;;4936397;29;20118;-77
2023/03/20 09:09:06;;;;;;;16.90;9.43;;;;;;;;;;4939417;29;20480;-75
2023/03/20 09:11:33;;;;;;;19.60;9.68;;;;;;;;;;4950501;28;20044;-77
2023/03/20 09:13:59;;;;;;;16.92;9.30;;;;;;;;;;4960502;28;20067;-78
2023/03/20 09:16:26;;;;;;;16.30;9.43;;;;;;;;;;4953810;28;20057;-78
2023/03/20 09:18:52;;;;;;;18.90;9.80;;;;;;;;;;4957381;28;20503;-78
2023/03/20 09:21:18;;;;;;;17.80;9.68;;;;;;;;;;4957956;28;20136;-78
2023/03/20 09:23:44;;;;;;;16.77;9.52;;;;;;;;;;4956155;28;20519;-78
2023/03/20 09:26:10;;;;;;;14.93;9.70;;;;;;;;;;4989305;28;20453;-78
2023/03/20 09:28:36;;;;;;;17.95;10.63;;;;;;;;;;4948585;28;20051;-77
2023/03/20 09:31:03;;;;;;;14.57;9.10;;;;;;;;;;4990453;28;20070;-78
2023/03/20 09:33:29;;;;;;;14.90;9.15;;;;;;;;;;4963799;28;20122;-78
2023/03/20 09:35:55;;;;;;;16.75;9.13;;;;;;;;;;4961625;28;20506;-78
2023/03/20 09:38:21;;;;;;;14.80;8.80;;;;;;;;;;4982671;28;20063;-78
2023/03/20 09:41:00;;;;;;;18.30;9.80;;;;;;;;;;4941073;29;20047;-78
2023/03/20 09:43:35;;;;;;;14.45;9.10;;;;;;;;;;4959111;28;20166;-78
2023/03/20 09:46:13;;;;;;;17.08;8.63;;;;;;;;;;4958236;28;20047;-78
2023/03/20 09:48:53;;;;;;;19.15;8.98;;;;;;;;;;4953450;28;20141;-78
2023/03/20 09:51:33;;;;;;;16.73;8.13;;;;;;;;;;4985893;28;20511;-78
2023/03/20 09:54:04;;;;;;;16.25;7.97;;;;;;;;;;4956783;28;20050;-77
2023/03/20 09:56:30;;;;;;;19.77;9.00;;;;;;;;;;4954459;29;20050;-78
2023/03/20 09:58:57;;;;;;;13.20;8.05;;;;;;;;;;4957853;28;20051;-78
2023/03/20 10:01:30;;;;;;;16.67;8.77;;;;;;;;;;4960022;28;20051;-78
2023/03/20 10:03:57;;;;;;;17.95;8.90;;;;;;;;;;4962046;28;20043;-77
2023/03/20 10:06:24;;;;;;;13.63;8.77;;;;;;;;;;4988557;28;20058;-78
2023/03/20 10:08:50;;;;;;;19.10;8.85;;;;;;;;;;4959592;28;20055;-77
2023/03/20 10:11:16;;;;;;;17.95;8.57;;;;;;;;;;4960550;28;20051;-78
2023/03/20 10:13:48;;;;;;;15.80;8.85;;;;;;;;;;4958775;28;20043;-78
2023/03/20 10:16:41;;;;;;;13.75;9.05;;;;;;;;;;4957866;28;20126;-77
2023/03/20 10:19:20;;;;;;;13.15;8.55;;;;;;;;;;4958116;28;20482;-78
2023/03/20 10:21:48;;;;;;;15.27;8.27;;;;;;;;;;4989367;28;21696;-78
2023/03/20 10:24:22;;;;;;;16.42;7.70;;;;;;;;;;4958074;28;20050;-78
2023/03/20 10:26:51;;;;;;;25.98;11.98;;;;;;;;;;4955492;29;20047;-78
2023/03/20 10:29:46;;;;;;;55.63;26.17;;;;;;;;;;4960459;28;20039;-81
2023/03/20 10:32:16;;;;;;;18.10;8.88;;;;;;;;;;4962028;28;20470;-78
2023/03/20 10:34:54;;;;;;;19.52;9.15;;;;;;;;;;4954824;29;20085;-77
2023/03/20 10:37:27;;;;;;;22.40;8.27;;;;;;;;;;4955132;29;20066;-78
2023/03/20 10:39:53;;;;;;;20.25;8.60;;;;;;;;;;4956198;28;20106;-79
2023/03/20 10:42:23;;;;;;;16.23;8.30;;;;;;;;;;4955211;28;20402;-78
2023/03/20 10:45:15;;;;;;;17.08;8.00;;;;;;;;;;4955099;29;20051;-78
2023/03/20 10:47:42;;;;;;;19.77;7.65;;;;;;;;;;4947729;29;20087;-77
2023/03/20 10:50:15;;;;;;;17.70;8.20;;;;;;;;;;4938740;29;20110;-78
2023/03/20 10:52:42;;;;;;;16.05;7.68;;;;;;;;;;4955915;29;20043;-78
2023/03/20 10:55:14;;;;;;;15.05;6.93;;;;;;;;;;4971828;28;20067;-78
2023/03/20 10:57:46;;;;;;;15.20;6.47;;;;;;;;;;4955252;28;20036;-78
2023/03/20 11:00:20;;;;;;;15.40;7.22;;;;;;;;;;4954875;29;20494;-78
2023/03/20 11:02:46;;;;;;;14.23;6.13;;;;;;;;;;4954590;29;20055;-78
2023/03/20 11:05:38;;;;;;;15.23;7.10;;;;;;;;;;4955498;29;20128;-78
2023/03/20 11:08:08;;;;;;;16.48;7.50;;;;;;;;;;4954652;29;20055;-77
2023/03/20 11:10:36;;;;;;;10.63;6.88;;;;;;;;;;4956816;28;20067;-77
2023/03/20 11:13:29;;;;;;;15.20;7.30;;;;;;;;;;4956900;28;20074;-77
2023/03/20 11:15:55;;;;;;;12.43;6.35;;;;;;;;;;4951873;28;20052;-77
2023/03/20 11:18:24;;;;;;;14.40;6.70;;;;;;;;;;4956100;28;20074;-78
2023/03/20 11:20:52;;;;;;;14.77;7.55;;;;;;;;;;4955975;28;20474;-78
2023/03/20 11:23:20;;;;;;;15.77;7.20;;;;;;;;;;4957036;28;20047;-77
2023/03/20 11:25:56;;;;;;;16.55;7.88;;;;;;;;;;4988032;28;20129;-78
2023/03/20 11:28:39;;;;;;;15.30;6.22;;;;;;;;;;4956701;28;20071;-78
2023/03/20 11:31:07;;;;;;;12.68;6.78;;;;;;;;;;4949210;28;20039;-78
2023/03/20 11:33:36;;;;;;;16.00;6.90;;;;;;;;;;4956804;28;20118;-77
2023/03/20 11:36:10;;;;;;;12.73;6.38;;;;;;;;;;4956988;28;20104;-78
2023/03/20 11:38:59;;;;;;;17.55;7.00;;;;;;;;;;4956744;28;20135;-77
2023/03/20 11:41:27;;;;;;;12.93;6.03;;;;;;;;;;4987667;28;20126;-77
2023/03/20 11:43:53;;;;;;;13.38;5.80;;;;;;;;;;4947926;28;20035;-77
2023/03/20 11:46:21;;;;;;;12.90;6.78;;;;;;;;;;4955870;28;20046;-78
2023/03/20 11:49:03;;;;;;;13.32;6.97;;;;;;;;;;4956400;28;20086;-78
2023/03/20 11:51:29;;;;;;;12.10;7.80;;;;;;;;;;4972393;28;20358;-77
2023/03/20 11:53:58;;;;;;;15.40;9.23;;;;;;;;;;4956367;28;20047;-77
2023/03/20 11:56:25;;;;;;;20.63;9.32;;;;;;;;;;4984351;28;20107;-78
2023/03/20 11:59:12;;;;;;;17.08;8.88;;;;;;;;;;4955439;29;20423;-78
2023/03/20 12:01:43;;;;;;;15.63;8.93;;;;;;;;;;4955018;28;20051;-77
2023/03/20 12:04:15;;;;;;;12.15;8.15;;;;;;;;;;4982354;28;20114;-77
2023/03/20 12:06:43;;;;;;;15.60;8.73;;;;;;;;;;4940637;29;20055;-77
2023/03/20 12:09:15;;;;;;;12.82;8.50;;;;;;;;;;4986693;28;20050;-78
2023/03/20 12:11:46;;;;;;;9.40;7.75;;;;;;;;;;4957665;28;20050;-77
2023/03/20 12:14:17;;;;;;;10.32;7.85;;;;;;;;;;4988129;28;20047;-77
2023/03/20 12:16:55;;;;;;;12.43;8.70;;;;;;;;;;4963453;28;20046;-77
2023/03/20 12:19:25;;;;;;;11.77;8.10;;;;;;;;;;4980040;28;20046;-77
2023/03/20 12:21:51;;;;;;;15.27;9.10;;;;;;;;;;4984696;28;20043;-78
2023/03/20 12:24:25;;;;;;;12.43;8.20;;;;;;;;;;4986693;28;20059;-77
2023/03/20 12:27:10;;;;;;;12.50;9.73;;;;;;;;;;4964474;28;20042;-77
2023/03/20 12:29:40;;;;;;;14.13;9.80;;;;;;;;;;4952843;28;20059;-77
2023/03/20 12:32:27;;;;;;;12.18;8.95;;;;;;;;;;4955311;28;20040;-77
2023/03/20 12:35:15;;;;;;;21.60;10.50;;;;;;;;;;4955468;28;20042;-77
2023/03/20 12:37:44;;;;;;;12.40;9.02;;;;;;;;;;4955027;28;20055;-76
2023/03/20 12:40:17;;;;;;;13.75;8.85;;;;;;;;;;4955494;28;20471;-77
2023/03/20 12:42:46;;;;;;;11.55;8.90;;;;;;;;;;4989262;28;20425;-77
2023/03/20 12:45:17;;;;;;;10.07;8.30;;;;;;;;;;4992986;28;20043;-77
2023/03/20 12:48:02;;;;;;;12.10;8.45;;;;;;;;;;4962796;28;20102;-77
2023/03/20 12:50:33;;;;;;;10.50;8.40;;;;;;;;;;4967212;28;20051;-77
2023/03/20 12:53:18;;;;;;;11.32;8.40;;;;;;;;;;4997102;28;20043;-77
2023/03/20 12:56:03;;;;;;;10.90;8.07;;;;;;;;;;4992804;28;20486;-77
2023/03/20 12:58:39;;;;;;;13.27;8.85;;;;;;;;;;4967093;28;20512;-77
2023/03/20 13:01:05;;;;;;;;;;;;;;;;;;4962947;28;20051;-77
2023/03/20 13:03:40;;;;;;;10.23;8.27;;;;;;;;;;4961808;28;19929;-77
2023/03/20 13:06:15;;;;;;;11.00;8.53;;;;;;;;;;4961591;28;20051;-77
2023/03/20 13:08:59;;;;;;;11.50;8.95;;;;;;;;;;4961359;28;20403;-77
2023/03/20 13:11:33;;;;;;;11.45;9.05;;;;;;;;;;4993093;28;20047;-77
2023/03/20 13:14:17;;;;;;;11.65;9.13;;;;;;;;;;4959978;28;20541;-77
2023/03/20 13:16:54;;;;;;;12.88;9.50;;;;;;;;;;4960824;28;20043;-77
2023/03/20 13:19:32;;;;;;;11.50;8.73;;;;;;;;;;4992306;28;20376;-76
2023/03/20 13:22:03;;;;;;;12.52;8.85;;;;;;;;;;4960581;28;20055;-77
2023/03/20 13:24:38;;;;;;;20.33;8.85;;;;;;;;;;4961131;28;20065;-77
2023/03/20 13:27:14;;;;;;;12.30;8.98;;;;;;;;;;4961474;28;20051;-77
2023/03/20 13:29:57;;;;;;;12.73;9.18;;;;;;;;;;4961237;28;20094;-77
2023/03/20 13:32:36;;;;;;;11.15;8.52;;;;;;;;;;4942591;29;20100;-76
2023/03/20 13:35:02;;;;;;;11.07;8.95;;;;;;;;;;4968353;28;20068;-77
2023/03/20 13:37:35;;;;;;;10.38;7.63;;;;;;;;;;4964450;28;20186;-77
2023/03/20 13:40:13;;;;;;;10.35;8.70;;;;;;;;;;4991926;28;20401;-76
2023/03/20 13:42:59;;;;;;;11.68;9.13;;;;;;;;;;4960920;28;20054;-77
2023/03/20 13:45:33;;;;;;;10.82;8.60;;;;;;;;;;4961260;28;20057;-77
2023/03/20 13:48:01;;;;;;;12.20;8.55;;;;;;;;;;4993117;28;20052;-77
2023/03/20 13:50:40;;;;;;;10.27;8.55;;;;;;;;;;4960989;28;20043;-77
2023/03/20 13:53:12;;;;;;;10.23;7.75;;;;;;;;;;4960811;28;20051;-77
2023/03/20 13:55:41;;;;;;;9.63;8.20;;;;;;;;;;4956696;28;20051;-77
2023/03/20 13:58:16;;;;;;;10.30;8.15;;;;;;;;;;4958353;28;20047;-77
2023/03/20 14:00:48;;;;;;;9.13;7.93;;;;;;;;;;4958131;28;20118;-77
2023/03/20 14:03:18;;;;;;;7.60;6.10;;;;;;;;;;4957922;28;20043;-77
2023/03/20 14:05:46;;;;;;;9.30;6.80;;;;;;;;;;4988584;28;20055;-76
2023/03/20 14:08:41;;;;;;;7.80;6.70;;;;;;;;;;4988676;28;20054;-77
2023/03/20 14:11:10;;;;;;;7.65;6.70;;;;;;;;;;4945773;29;20143;-77
2023/03/20 14:14:04;;;;;;;8.25;7.07;;;;;;;;;;4958122;28;20062;-77
2023/03/20 14:16:30;;;;;;;9.55;7.00;;;;;;;;;;4988511;28;20055;-77
2023/03/20 14:19:08;;;;;;;8.07;6.72;;;;;;;;;;4957622;28;20126;-77
2023/03/20 14:21:35;;;;;;;7.13;5.97;;;;;;;;;;4957737;28;20097;-77
2023/03/20 14:24:05;;;;;;;7.25;6.03;;;;;;;;;;4957066;28;20055;-77
2023/03/20 14:26:35;;;;;;;7.45;6.13;;;;;;;;;;4956996;28;20063;-77
2023/03/20 14:29:10;;;;;;;7.40;5.93;;;;;;;;;;4945028;29;20080;-77
2023/03/20 14:31:44;;;;;;;7.63;6.15;;;;;;;;;;4957206;28;20097;-77
2023/03/20 14:34:13;;;;;;;8.00;6.13;;;;;;;;;;4956854;28;20046;-77
2023/03/20 14:36:45;;;;;;;7.15;6.18;;;;;;;;;;4947043;28;20134;-77
2023/03/20 14:39:13;;;;;;;8.30;6.32;;;;;;;;;;4951578;28;20198;-77
2023/03/20 14:41:55;;;;;;;7.78;6.70;;;;;;;;;;4956307;28;20490;-77
2023/03/20 14:44:29;;;;;;;7.38;6.25;;;;;;;;;;4939118;29;20067;-77